createdAt,value
2019-03-06T00:03:15.426Z,4.36
2019-03-06T00:08:20.986Z,4.32
2019-03-06T00:13:29.766Z,4.32
2019-03-06T00:18:49.040Z,4.30
2019-03-06T00:23:54.613Z,4.11
2019-03-06T00:29:01.882Z,4.26
2019-03-06T00:34:07.905Z,4.18
2019-03-06T00:39:18.791Z,4.15
2019-03-06T00:44:25.975Z,4.01
2019-03-06T00:49:31.569Z,4.10
2019-03-06T00:54:37.155Z,4.19
2019-03-06T00:59:45.159Z,3.90
2019-03-06T01:04:51.122Z,4.11
2019-03-06T01:09:56.733Z,4.11
2019-03-06T01:15:02.334Z,3.95
2019-03-06T01:20:13.135Z,3.71
2019-03-06T01:25:19.797Z,3.71
2019-03-06T01:30:25.419Z,3.73
2019-03-06T01:36:02.137Z,3.85
2019-03-06T01:41:39.247Z,3.89
2019-03-06T01:46:43.999Z,4.01
2019-03-06T01:51:49.569Z,4.01
2019-03-06T01:57:06.654Z,3.77
2019-03-06T02:02:12.541Z,3.70
2019-03-06T02:07:18.216Z,3.72
2019-03-06T02:12:24.296Z,3.86
2019-03-06T02:17:29.862Z,4.07
2019-03-06T02:22:35.449Z,3.90
2019-03-06T02:27:41.412Z,3.55
2019-03-06T02:32:47.084Z,3.85
2019-03-06T02:37:52.656Z,3.71
2019-03-06T02:42:58.359Z,4.04
2019-03-06T02:48:05.981Z,4.06
2019-03-06T02:53:42.037Z,3.84
2019-03-06T02:58:54.851Z,3.76
2019-03-06T03:04:24.316Z,3.70
2019-03-06T03:09:30.200Z,3.52
2019-03-06T03:14:36.823Z,3.68
2019-03-06T03:19:43.059Z,3.74
2019-03-06T03:24:48.760Z,3.33
2019-03-06T03:29:54.350Z,3.78
2019-03-06T03:35:16.362Z,3.59
2019-03-06T03:40:27.458Z,3.50
2019-03-06T03:45:35.235Z,3.66
2019-03-06T03:50:41.127Z,3.62
2019-03-06T03:55:47.040Z,3.67
2019-03-06T04:00:52.866Z,3.62
2019-03-06T04:05:58.546Z,3.73
2019-03-06T04:11:08.728Z,3.52
2019-03-06T04:16:28.021Z,3.58
2019-03-06T04:21:34.446Z,3.66
2019-03-06T04:26:39.937Z,3.51
2019-03-06T04:31:45.896Z,3.51
2019-03-06T04:36:53.083Z,3.68
2019-03-06T04:41:58.663Z,3.79
2019-03-06T04:47:06.199Z,3.74
2019-03-06T04:52:13.460Z,3.76
2019-03-06T04:57:19.005Z,3.72
2019-03-06T05:02:24.576Z,3.72
2019-03-06T05:07:30.811Z,3.67
2019-03-06T05:12:36.480Z,3.59
2019-03-06T05:17:49.220Z,3.35
2019-03-06T05:22:54.833Z,3.35
2019-03-06T05:28:00.549Z,3.00
2019-03-06T05:33:08.567Z,3.19
2019-03-06T05:38:25.282Z,3.47
2019-03-06T05:43:30.788Z,3.21
2019-03-06T05:48:36.458Z,2.92
2019-03-06T05:53:42.177Z,3.55
2019-03-06T05:58:47.980Z,3.71
2019-03-06T06:03:53.531Z,3.89
2019-03-06T06:08:59.895Z,4.14
2019-03-06T06:14:05.724Z,3.76
2019-03-06T06:19:39.581Z,3.31
2019-03-06T06:24:45.512Z,3.41
2019-03-06T06:30:06.979Z,3.79
2019-03-06T06:35:15.557Z,4.45
2019-03-06T06:40:24.519Z,5.04
2019-03-06T06:45:33.061Z,5.04
2019-03-06T06:50:39.819Z,5.10
2019-03-06T06:56:32.477Z,5.10
2019-03-06T07:02:42.286Z,5.40
2019-03-06T07:08:07.922Z,5.90
2019-03-06T07:13:38.880Z,6.25
2019-03-06T07:19:12.902Z,6.36
2019-03-06T07:24:55.379Z,6.01
2019-03-06T07:30:35.225Z,6.46
2019-03-06T07:36:16.932Z,6.23
2019-03-06T07:41:40.108Z,6.64
2019-03-06T07:47:03.479Z,7.30
2019-03-06T07:52:34.028Z,8.05
2019-03-06T07:58:16.385Z,7.98
2019-03-06T08:03:35.244Z,8.45
2019-03-06T08:09:04.246Z,7.03
2019-03-06T08:14:33.119Z,7.40
2019-03-06T08:19:56.408Z,8.66
2019-03-06T08:25:20.373Z,9.38
2019-03-06T08:30:28.050Z,8.33
2019-03-06T08:35:34.195Z,7.88
2019-03-06T08:40:39.822Z,8.91
2019-03-06T08:45:56.591Z,9.08
2019-03-06T08:51:19.665Z,9.66
2019-03-06T08:56:44.194Z,9.37
2019-03-06T09:02:00.969Z,9.10
2019-03-06T09:07:26.872Z,9.70
2019-03-06T09:12:51.048Z,9.97
2019-03-06T09:18:34.148Z,10.91
2019-03-06T09:24:06.185Z,9.73
2019-03-06T09:29:36.792Z,10.66
2019-03-06T09:35:01.430Z,11.07
2019-03-06T09:40:23.212Z,11.37
2019-03-06T09:46:19.072Z,11.02
2019-03-06T09:51:43.750Z,10.59
2019-03-06T09:57:06.812Z,11.06
2019-03-06T10:02:19.546Z,10.79
2019-03-06T10:07:52.870Z,10.86
2019-03-06T10:13:07.548Z,10.77
2019-03-06T10:18:26.930Z,10.88
2019-03-06T10:23:32.533Z,11.15
2019-03-06T10:28:38.208Z,11.57
2019-03-06T10:33:44.222Z,11.12
2019-03-06T10:38:50.287Z,12.08
2019-03-06T10:43:56.116Z,11.56
2019-03-06T10:49:01.819Z,12.26
2019-03-06T10:54:07.675Z,12.62
2019-03-06T10:59:13.470Z,12.43
2019-03-06T11:04:27.362Z,12.19
2019-03-06T11:09:35.270Z,12.69
2019-03-06T11:14:40.985Z,12.69
2019-03-06T11:19:48.787Z,11.85
2019-03-06T11:24:54.989Z,11.87
2019-03-06T11:30:01.636Z,12.01
2019-03-06T11:35:10.716Z,11.88
2019-03-06T11:40:16.894Z,12.14
2019-03-06T11:45:26.259Z,12.60
2019-03-06T11:50:40.423Z,11.86
2019-03-06T11:55:39.919Z,12.33
2019-03-06T12:00:47.226Z,12.66
2019-03-06T12:05:53.547Z,12.61
2019-03-06T12:10:59.504Z,12.33
2019-03-06T12:16:05.728Z,12.87
2019-03-06T12:21:11.300Z,13.05
2019-03-06T12:26:17.036Z,12.61
2019-03-06T12:31:23.011Z,12.92
2019-03-06T12:36:28.586Z,13.12
2019-03-06T12:41:37.685Z,13.28
2019-03-06T12:46:44.097Z,13.48
2019-03-06T12:51:54.373Z,13.37
2019-03-06T12:56:58.494Z,13.19
2019-03-06T13:02:05.625Z,12.78
2019-03-06T13:07:13.175Z,12.96
2019-03-06T13:12:18.699Z,12.84
2019-03-06T13:17:26.262Z,12.94
2019-03-06T13:22:31.947Z,12.86
2019-03-06T13:27:37.521Z,13.42
2019-03-06T13:32:51.808Z,13.90
2019-03-06T13:37:57.507Z,13.29
2019-03-06T13:43:06.019Z,13.66
2019-03-06T13:48:35.716Z,13.17
2019-03-06T13:53:43.519Z,14.02
2019-03-06T13:58:49.224Z,14.12
2019-03-06T14:03:55.502Z,13.93
2019-03-06T14:14:12.314Z,13.39
2019-03-06T14:19:17.918Z,13.54
2019-03-06T14:24:25.356Z,12.99
2019-03-06T14:29:35.050Z,13.08
2019-03-06T14:34:40.688Z,13.12
2019-03-06T14:39:46.449Z,12.92
2019-03-06T14:44:52.092Z,12.93
2019-03-06T14:49:58.348Z,13.05
2019-03-06T14:55:04.439Z,12.94
2019-03-06T15:00:13.529Z,12.95
2019-03-06T15:05:20.817Z,12.76
2019-03-06T15:10:26.638Z,12.23
2019-03-06T15:15:32.332Z,12.22
2019-03-06T15:20:38.149Z,12.28
2019-03-06T15:25:44.180Z,12.35
2019-03-06T15:30:49.965Z,11.95
2019-03-06T15:35:58.753Z,12.33
2019-03-06T15:41:12.546Z,11.98
2019-03-06T15:46:20.439Z,12.05
2019-03-06T15:51:26.131Z,11.92
2019-03-06T15:56:32.134Z,11.92
2019-03-06T16:01:38.342Z,11.92
2019-03-06T16:06:44.001Z,11.76
2019-03-06T16:11:51.668Z,11.68
2019-03-06T16:16:57.584Z,11.71
2019-03-06T16:22:06.484Z,11.60
2019-03-06T16:27:16.201Z,11.11
2019-03-06T16:32:21.847Z,11.30
2019-03-06T16:37:28.403Z,11.26
2019-03-06T16:42:34.206Z,11.18
2019-03-06T16:47:40.369Z,11.07
2019-03-06T16:52:46.727Z,10.96
2019-03-06T16:57:54.100Z,10.86
2019-03-06T17:03:01.040Z,10.94
2019-03-06T17:08:11.701Z,10.83
2019-03-06T17:13:22.977Z,11.03
2019-03-06T17:18:31.863Z,10.99
2019-03-06T17:23:39.501Z,10.83
2019-03-06T17:28:48.233Z,10.86
2019-03-06T17:33:56.569Z,10.88
2019-03-06T17:39:11.097Z,10.74
2019-03-06T17:44:18.455Z,10.85
2019-03-06T17:49:24.434Z,10.58
2019-03-06T17:54:33.341Z,10.94
2019-03-06T17:59:43.359Z,10.78
2019-03-06T18:04:55.168Z,10.59
2019-03-06T18:10:01.490Z,10.65
2019-03-06T18:15:12.916Z,10.75
2019-03-06T18:20:20.773Z,10.67
2019-03-06T18:25:32.922Z,10.82
2019-03-06T18:30:43.020Z,10.65
2019-03-06T18:35:49.156Z,10.61
2019-03-06T18:40:59.364Z,10.87
2019-03-06T18:46:07.999Z,10.87
2019-03-06T18:51:16.267Z,10.79
2019-03-06T18:56:38.171Z,10.62
2019-03-06T19:01:46.768Z,10.82
2019-03-06T19:06:53.407Z,10.54
2019-03-06T19:12:12.758Z,10.59
2019-03-06T19:17:20.854Z,10.38
2019-03-06T19:22:31.272Z,10.45
2019-03-06T19:28:13.680Z,10.03
2019-03-06T19:33:23.563Z,10.26
2019-03-06T19:38:35.597Z,10.22
2019-03-06T19:43:41.944Z,10.42
2019-03-06T19:48:51.487Z,10.74
2019-03-06T19:54:03.273Z,10.46
2019-03-06T19:59:10.602Z,10.58
2019-03-06T20:04:22.769Z,10.80
2019-03-06T20:09:35.077Z,10.82
2019-03-06T20:14:44.399Z,10.47
2019-03-06T20:19:58.089Z,10.68
2019-03-06T20:25:29.133Z,10.72
2019-03-06T20:30:43.902Z,10.99
2019-03-06T20:35:50.156Z,10.97
2019-03-06T20:41:11.441Z,11.09
2019-03-06T20:46:22.209Z,11.01
2019-03-06T20:51:30.092Z,10.91
2019-03-06T20:56:49.896Z,10.97
2019-03-06T21:02:03.881Z,10.80
2019-03-06T21:07:12.796Z,10.83
2019-03-06T21:12:20.075Z,10.79
2019-03-06T21:17:27.542Z,10.70
2019-03-06T21:22:34.979Z,10.53
2019-03-06T21:27:41.006Z,11.01
2019-03-06T21:32:48.222Z,10.59
2019-03-06T21:37:57.233Z,10.44
2019-03-06T21:43:06.851Z,10.44
2019-03-06T21:48:14.616Z,10.27
2019-03-06T21:53:22.370Z,10.66
2019-03-06T21:58:29.589Z,10.34
2019-03-06T22:03:35.489Z,10.16
2019-03-06T22:08:41.173Z,9.98
2019-03-06T22:13:46.888Z,10.32
2019-03-06T22:18:53.374Z,9.64
2019-03-06T22:23:59.074Z,9.76
2019-03-06T22:29:05.424Z,9.61
2019-03-06T22:34:11.725Z,9.35
2019-03-06T22:39:17.494Z,9.55
2019-03-06T22:44:23.287Z,9.50
2019-03-06T22:49:29.055Z,9.43
2019-03-06T22:54:34.742Z,9.23
2019-03-06T22:59:40.479Z,9.14
2019-03-06T23:04:46.161Z,9.21
2019-03-06T23:09:52.210Z,9.15
2019-03-06T23:14:58.376Z,9.26
2019-03-06T23:20:09.334Z,9.29
2019-03-06T23:25:15.033Z,8.87
2019-03-06T23:30:36.308Z,9.13
2019-03-06T23:35:41.991Z,9.35
2019-03-06T23:40:47.664Z,9.25
2019-03-06T23:51:56.887Z,9.25
2019-03-06T23:57:07.192Z,9.14
